This is the latest recevied weather packets stored in our database for station/object N2MLB-WX. If no packets are shown the sender has not sent any weather packets the latest 1 day(s).
| Time | Temp. | Humidity | Pressure | Rain* | Wind** | Luminosity | Snow |
|---|---|---|---|---|---|---|---|
| 1777991541 | 16.11° C | 68% | 1000 hPa | 0 mm | 3.13 m/s, 358° | 64 W/m² | - |
| 1777991239 | 18.33° C | 66% | 1000 hPa | 0 mm | 0 m/s | 34 W/m² | - |
| 1777990940 | 18.33° C | 64% | 1000 hPa | 0 mm | 0 m/s | 32 W/m² | - |
| 1777990640 | 18.33° C | 64% | 1000 hPa | 0 mm | 0 m/s | 24 W/m² | - |
| 1777990340 | 17.78° C | 69% | 1000 hPa | 0 mm | 0.89 m/s, 3° | 43 W/m² | - |
| 1777990040 | 17.22° C | 69% | 1000 hPa | 0 mm | 0.45 m/s, 50° | 34 W/m² | - |
| 1777989747 | 16.67° C | 68% | 1000 hPa | 0 mm | 1.34 m/s, 0° | 24 W/m² | - |
| 1777989440 | 16.67° C | 68% | 999 hPa | 0 mm | 0.89 m/s, 55° | 23 W/m² | - |
| 1777989140 | 16.11° C | 69% | 999 hPa | 0 mm | 1.34 m/s, 139° | 25 W/m² | - |
| 1777988839 | 15.56° C | 69% | 999 hPa | 0 mm | 2.24 m/s, 317° | 11 W/m² | - |
| 1777988540 | 15.56° C | 70% | 999 hPa | 0 mm | 1.79 m/s, 20° | 22 W/m² | - |
| 1777988239 | 15° C | 74% | 999 hPa | 0 mm | 0.45 m/s, 46° | 26 W/m² | - |
| 1777987940 | 14.44° C | 73% | 999 hPa | 0 mm | 1.34 m/s, 59° | 13 W/m² | - |
| 1777987639 | 14.44° C | 72% | 999 hPa | 0 mm | 0.89 m/s, 330° | 17 W/m² | - |
| 1777987339 | 15° C | 71% | 999 hPa | 0 mm | 0.89 m/s, 266° | 16 W/m² | - |
| 1777987039 | 16.11° C | 68% | 999 hPa | 0 mm | 1.34 m/s, 234° | 14 W/m² | - |
| 1777986740 | 19.44° C | 61% | 999 hPa | 0 mm | 2.68 m/s, 285° | 17 W/m² | - |
| 1777986439 | 19.44° C | 60% | 999 hPa | 0 mm | 2.24 m/s, 130° | 15 W/m² | - |
| 1777986140 | 19.44° C | 62% | 999 hPa | 0 mm | 3.13 m/s, 164° | 16 W/m² | - |
| 1777985840 | 20° C | 61% | 998 hPa | 0 mm | 0.45 m/s, 231° | 16 W/m² | - |
| 1777985539 | 20° C | 58% | 998 hPa | 0 mm | 2.24 m/s, 181° | 28 W/m² | - |
| 1777985245 | 20° C | 57% | 998 hPa | 0 mm | 3.13 m/s, 233° | 24 W/m² | - |
| 1777984940 | 20° C | 57% | 998 hPa | 0 mm | 3.13 m/s, 72° | 27 W/m² | - |
| 1777984640 | 20.56° C | 56% | 998 hPa | 0 mm | 2.24 m/s, 197° | 51 W/m² | - |
| 1777984341 | 20.56° C | 56% | 998 hPa | 0 mm | 3.13 m/s, 184° | 46 W/m² | - |
* Rain latest hour (hover to see other rain measurements)
** Current wind speed in m/s (hover to see current wind gust speed)